createdAt,value
2023-01-29T00:01:04.236Z,15.00
2023-01-29T00:03:07.188Z,13.93
2023-01-29T00:05:26.494Z,17.38
2023-01-29T00:07:30.761Z,22.13
2023-01-29T00:09:33.759Z,17.95
2023-01-29T00:11:36.777Z,20.05
2023-01-29T00:13:41.130Z,16.67
2023-01-29T00:15:53.390Z,23.60
2023-01-29T00:17:56.332Z,17.80
2023-01-29T00:19:59.378Z,19.92
2023-01-29T00:22:02.408Z,12.65
2023-01-29T00:24:05.958Z,8.65
2023-01-29T00:26:09.213Z,8.60
2023-01-29T00:28:13.796Z,7.32
2023-01-29T00:30:20.195Z,7.07
2023-01-29T00:32:23.416Z,7.28
2023-01-29T00:34:26.323Z,8.00
2023-01-29T00:36:29.399Z,8.70
2023-01-29T00:38:32.437Z,7.57
2023-01-29T00:40:58.457Z,9.40
2023-01-29T00:43:20.157Z,8.27
2023-01-29T00:45:24.637Z,8.48
2023-01-29T00:47:34.020Z,7.32
2023-01-29T00:49:37.252Z,7.63
2023-01-29T00:51:40.679Z,7.53
2023-01-29T00:53:43.637Z,6.47
2023-01-29T00:55:46.737Z,7.22
2023-01-29T00:57:51.218Z,7.72
2023-01-29T00:59:54.279Z,8.63
2023-01-29T01:02:17.039Z,7.70
2023-01-29T01:04:23.684Z,4.90
2023-01-29T01:06:27.478Z,7.18
2023-01-29T01:08:49.079Z,11.07
2023-01-29T01:10:59.963Z,10.90
2023-01-29T01:13:14.910Z,7.20
2023-01-29T01:15:18.569Z,8.98
2023-01-29T01:17:23.042Z,6.60
2023-01-29T01:19:26.281Z,8.23
2023-01-29T01:21:29.317Z,8.15
2023-01-29T01:23:32.678Z,6.93
2023-01-29T01:25:35.639Z,12.13
2023-01-29T01:27:41.560Z,16.40
2023-01-29T01:29:44.440Z,12.82
2023-01-29T01:31:47.412Z,15.25
2023-01-29T01:33:54.630Z,14.35
2023-01-29T01:36:02.057Z,15.07
2023-01-29T01:38:05.178Z,15.13
2023-01-29T01:40:18.946Z,14.40
2023-01-29T01:42:22.042Z,15.02
2023-01-29T01:44:54.040Z,12.95
2023-01-29T01:46:57.055Z,16.08
2023-01-29T01:49:06.199Z,10.45
2023-01-29T01:51:09.598Z,12.60
2023-01-29T01:53:14.878Z,11.45
2023-01-29T01:57:26.038Z,11.93
2023-01-29T01:59:29.148Z,13.25
2023-01-29T02:01:32.239Z,17.83
2023-01-29T02:03:58.240Z,14.52
2023-01-29T02:06:21.417Z,14.23
2023-01-29T02:08:51.082Z,14.52
2023-01-29T02:10:54.478Z,12.30
2023-01-29T02:12:57.550Z,16.10
2023-01-29T02:15:00.896Z,14.77
2023-01-29T02:17:03.954Z,14.82
2023-01-29T02:19:15.243Z,13.43
2023-01-29T02:21:42.077Z,14.25
2023-01-29T02:26:21.039Z,15.80
2023-01-29T02:28:36.957Z,12.48
2023-01-29T02:30:48.796Z,13.55
2023-01-29T02:32:59.797Z,13.68
2023-01-29T02:35:47.034Z,12.70
2023-01-29T02:37:55.918Z,11.75
2023-01-29T02:40:10.357Z,12.20
2023-01-29T02:42:17.478Z,11.52
2023-01-29T02:44:30.677Z,13.07
2023-01-29T02:46:40.407Z,12.27
2023-01-29T02:48:49.598Z,11.40
2023-01-29T02:50:59.484Z,9.68
2023-01-29T02:53:08.600Z,17.65
2023-01-29T02:55:16.417Z,12.70
2023-01-29T02:57:23.356Z,14.38
2023-01-29T02:59:35.916Z,12.13
2023-01-29T03:01:46.488Z,15.20
2023-01-29T03:03:54.632Z,12.68
2023-01-29T03:06:06.569Z,10.80
2023-01-29T03:08:12.527Z,14.77
2023-01-29T03:10:20.518Z,16.15
2023-01-29T03:12:34.478Z,13.15
2023-01-29T03:15:01.652Z,13.45
2023-01-29T03:17:09.079Z,16.83
2023-01-29T03:19:17.638Z,14.77
2023-01-29T03:21:44.316Z,14.20
2023-01-29T03:24:06.668Z,15.55
2023-01-29T03:26:28.530Z,14.00
2023-01-29T03:28:51.067Z,21.83
2023-01-29T03:31:16.437Z,17.70
2023-01-29T03:33:26.897Z,15.80
2023-01-29T03:37:44.530Z,15.45
2023-01-29T03:39:48.438Z,15.93
2023-01-29T03:41:56.957Z,17.55
2023-01-29T03:44:10.881Z,16.25
2023-01-29T03:46:24.877Z,17.23
2023-01-29T03:48:33.557Z,17.15
2023-01-29T03:50:42.319Z,18.02
2023-01-29T03:52:52.002Z,21.88
2023-01-29T03:55:01.516Z,18.20
2023-01-29T03:57:17.716Z,15.32
2023-01-29T03:59:33.476Z,16.90
2023-01-29T04:02:13.302Z,22.35
2023-01-29T04:04:22.709Z,19.70
2023-01-29T04:06:30.437Z,19.95
2023-01-29T04:08:48.917Z,19.15
2023-01-29T04:10:55.287Z,22.23
2023-01-29T04:13:02.681Z,21.52
2023-01-29T04:15:11.460Z,18.42
2023-01-29T04:17:19.603Z,23.02
2023-01-29T04:19:32.357Z,22.10
2023-01-29T04:21:37.970Z,20.92
2023-01-29T04:23:41.891Z,18.73
2023-01-29T04:25:53.076Z,20.45
2023-01-29T04:28:04.513Z,16.27
2023-01-29T04:30:21.477Z,20.60
2023-01-29T04:32:33.036Z,20.55
2023-01-29T04:34:52.056Z,18.88
2023-01-29T04:37:04.936Z,19.73
2023-01-29T04:39:18.440Z,16.77
2023-01-29T04:41:28.077Z,22.10
2023-01-29T04:43:40.284Z,18.40
2023-01-29T04:45:55.276Z,18.27
2023-01-29T04:48:10.236Z,17.00
2023-01-29T04:50:18.699Z,20.77
2023-01-29T04:52:29.117Z,20.27
2023-01-29T04:54:43.481Z,20.42
2023-01-29T04:56:53.839Z,13.55
2023-01-29T04:59:01.268Z,15.10
2023-01-29T05:01:09.556Z,16.05
2023-01-29T05:03:15.876Z,12.60
2023-01-29T05:05:21.237Z,14.82
2023-01-29T05:07:27.044Z,15.05
2023-01-29T05:09:30.519Z,17.20
2023-01-29T05:11:35.296Z,14.60
2023-01-29T05:13:42.250Z,14.05
2023-01-29T05:15:49.153Z,15.40
2023-01-29T05:17:54.157Z,15.38
2023-01-29T05:19:58.678Z,14.45
2023-01-29T05:22:05.658Z,16.48
2023-01-29T05:24:13.319Z,11.50
2023-01-29T05:26:35.009Z,18.73
2023-01-29T05:28:37.911Z,15.82
2023-01-29T05:30:40.972Z,19.02
2023-01-29T05:32:43.812Z,16.10
2023-01-29T05:34:47.117Z,13.13
2023-01-29T05:36:51.614Z,13.02
2023-01-29T05:38:54.497Z,13.13
2023-01-29T05:40:59.650Z,12.43
2023-01-29T05:43:02.841Z,16.67
2023-01-29T05:45:06.709Z,12.02
2023-01-29T05:47:09.757Z,11.80
2023-01-29T05:49:13.077Z,14.98
2023-01-29T05:51:16.314Z,13.45
2023-01-29T05:53:20.698Z,13.98
2023-01-29T05:55:23.637Z,19.05
2023-01-29T05:57:26.806Z,17.17
2023-01-29T05:59:31.527Z,21.65
2023-01-29T06:01:34.592Z,20.37
2023-01-29T06:03:37.682Z,18.58
2023-01-29T06:05:40.914Z,16.08
2023-01-29T06:07:45.667Z,15.55
2023-01-29T06:09:50.122Z,15.17
2023-01-29T06:11:53.318Z,16.27
2023-01-29T06:13:56.310Z,20.33
2023-01-29T06:15:59.386Z,15.45
2023-01-29T06:18:02.557Z,18.27
2023-01-29T06:20:06.926Z,14.95
2023-01-29T06:22:09.918Z,17.65
2023-01-29T06:24:12.971Z,14.45
2023-01-29T06:26:17.449Z,12.55
2023-01-29T06:28:20.517Z,12.60
2023-01-29T06:30:23.957Z,16.35
2023-01-29T06:32:27.864Z,11.60
2023-01-29T06:34:30.949Z,12.68
2023-01-29T06:36:34.121Z,13.95
2023-01-29T06:38:37.017Z,13.57
2023-01-29T06:40:40.139Z,13.50
2023-01-29T06:42:46.134Z,14.27
2023-01-29T06:44:49.998Z,16.20
2023-01-29T06:46:52.928Z,15.43
2023-01-29T06:48:59.578Z,23.27
2023-01-29T06:51:03.616Z,27.33
2023-01-29T06:53:06.637Z,30.35
2023-01-29T06:55:10.337Z,23.55
2023-01-29T06:57:13.441Z,18.45
2023-01-29T06:59:18.077Z,19.48
2023-01-29T07:01:36.888Z,13.02
2023-01-29T07:03:41.878Z,15.88
2023-01-29T07:05:50.657Z,13.80
2023-01-29T07:07:53.558Z,15.40
2023-01-29T07:09:56.479Z,12.25
2023-01-29T07:11:59.433Z,15.15
2023-01-29T07:14:02.591Z,15.80
2023-01-29T07:16:07.623Z,17.42
2023-01-29T07:18:13.876Z,22.00
2023-01-29T07:20:17.580Z,18.88
2023-01-29T07:22:20.709Z,18.13
2023-01-29T07:24:23.742Z,18.80
2023-01-29T07:26:26.940Z,19.35
2023-01-29T07:28:31.197Z,16.55
2023-01-29T07:30:34.648Z,13.52
2023-01-29T07:32:38.937Z,16.88
2023-01-29T07:34:41.820Z,14.88
2023-01-29T07:36:45.048Z,13.48
2023-01-29T07:38:50.902Z,14.90
2023-01-29T07:40:53.921Z,14.18
2023-01-29T07:42:59.269Z,18.98
2023-01-29T07:45:02.926Z,18.15
2023-01-29T07:47:06.157Z,16.25
2023-01-29T07:49:10.559Z,21.83
2023-01-29T07:51:13.516Z,21.80
2023-01-29T07:53:17.437Z,17.50
2023-01-29T07:55:20.558Z,22.02
2023-01-29T07:57:23.669Z,19.95
2023-01-29T07:59:26.957Z,18.60
2023-01-29T08:01:29.861Z,23.17
2023-01-29T08:03:32.969Z,19.58
2023-01-29T08:05:37.407Z,18.20
2023-01-29T08:07:40.479Z,16.40
2023-01-29T08:09:43.615Z,19.70
2023-01-29T08:11:46.818Z,19.52
2023-01-29T08:13:49.732Z,22.27
2023-01-29T08:15:52.655Z,20.80
2023-01-29T08:17:57.952Z,22.92
2023-01-29T08:20:01.366Z,23.70
2023-01-29T08:22:06.401Z,27.55
2023-01-29T08:24:09.648Z,19.00
2023-01-29T08:26:12.533Z,26.48
2023-01-29T08:28:15.497Z,29.50
2023-01-29T08:30:18.825Z,26.85
2023-01-29T08:32:21.757Z,27.90
2023-01-29T08:34:24.688Z,30.85
2023-01-29T08:36:27.919Z,32.38
2023-01-29T08:38:32.517Z,35.42
2023-01-29T08:40:35.884Z,36.30
2023-01-29T08:42:38.761Z,41.17
2023-01-29T08:44:41.917Z,38.05
2023-01-29T08:46:45.007Z,32.97
2023-01-29T08:48:48.037Z,23.65
2023-01-29T08:50:51.397Z,17.90
2023-01-29T08:52:58.382Z,24.92
2023-01-29T08:55:02.700Z,23.80
2023-01-29T08:57:05.879Z,24.88
2023-01-29T08:59:10.123Z,25.73
2023-01-29T09:01:14.577Z,24.60
2023-01-29T09:03:17.523Z,27.77
2023-01-29T09:05:20.704Z,22.15
2023-01-29T09:07:23.627Z,21.42
2023-01-29T09:09:26.757Z,24.75
2023-01-29T09:11:31.199Z,38.90
2023-01-29T09:13:34.557Z,27.83
2023-01-29T09:15:37.418Z,17.17
2023-01-29T09:17:41.376Z,18.48
2023-01-29T09:19:44.295Z,15.55
2023-01-29T09:21:47.308Z,13.65
2023-01-29T09:23:50.277Z,18.10
2023-01-29T09:25:53.277Z,14.18
2023-01-29T09:27:57.627Z,10.95
2023-01-29T09:30:00.878Z,15.45
2023-01-29T09:32:04.936Z,17.40
2023-01-29T09:34:07.808Z,22.20
2023-01-29T09:36:10.998Z,24.75
2023-01-29T09:38:14.608Z,14.63
2023-01-29T09:40:26.427Z,17.70
2023-01-29T09:42:36.477Z,20.35
2023-01-29T09:44:54.497Z,21.52
2023-01-29T09:47:00.547Z,18.52
2023-01-29T09:49:11.317Z,29.27
2023-01-29T09:51:22.238Z,33.05
2023-01-29T09:53:31.999Z,23.23
2023-01-29T09:55:41.878Z,12.80
2023-01-29T09:57:48.435Z,19.73
2023-01-29T09:59:52.979Z,27.60
2023-01-29T10:02:05.743Z,27.50
2023-01-29T10:04:28.214Z,19.58
2023-01-29T10:06:49.480Z,23.70
2023-01-29T10:09:30.798Z,20.55
2023-01-29T10:11:43.838Z,22.08
2023-01-29T10:13:56.087Z,39.58
2023-01-29T10:16:12.077Z,46.55
2023-01-29T10:18:45.527Z,61.00
2023-01-29T10:20:58.477Z,41.97
2023-01-29T10:23:21.218Z,25.17
2023-01-29T10:25:24.476Z,39.28
2023-01-29T10:27:33.452Z,25.35
2023-01-29T10:29:36.659Z,19.52
2023-01-29T10:31:41.573Z,18.70
2023-01-29T10:34:01.420Z,19.60
2023-01-29T10:36:10.231Z,12.95
2023-01-29T10:38:24.751Z,16.92
2023-01-29T10:40:44.367Z,17.40
2023-01-29T10:42:53.418Z,16.73
2023-01-29T10:45:13.358Z,16.27
2023-01-29T10:47:45.660Z,24.35
2023-01-29T10:50:06.491Z,21.63
2023-01-29T10:52:32.397Z,17.65
2023-01-29T10:54:56.597Z,24.33
2023-01-29T10:57:11.658Z,26.00
2023-01-29T10:59:33.513Z,22.27
2023-01-29T11:01:36.385Z,22.42
2023-01-29T11:03:41.099Z,21.38
2023-01-29T11:05:51.708Z,21.02
2023-01-29T11:08:03.349Z,20.45
2023-01-29T11:10:12.160Z,22.77
2023-01-29T11:12:19.536Z,21.65
2023-01-29T11:14:27.487Z,16.23
2023-01-29T11:16:30.973Z,17.08
2023-01-29T11:18:54.036Z,18.73
2023-01-29T11:21:03.184Z,17.40
2023-01-29T11:23:07.633Z,19.75
2023-01-29T11:25:17.239Z,19.27
2023-01-29T11:27:26.238Z,19.70
2023-01-29T11:29:38.236Z,22.60
2023-01-29T11:31:41.367Z,19.40
2023-01-29T11:33:45.734Z,18.38
2023-01-29T11:35:53.044Z,20.65
2023-01-29T11:38:08.255Z,24.20
2023-01-29T11:40:41.373Z,27.95
2023-01-29T11:42:44.758Z,26.05
2023-01-29T11:44:47.918Z,26.48
2023-01-29T11:46:51.117Z,25.02
2023-01-29T11:48:59.331Z,24.90
2023-01-29T11:51:13.367Z,25.95
2023-01-29T11:53:29.838Z,19.40
2023-01-29T11:55:49.828Z,26.73
2023-01-29T11:57:57.000Z,27.52
2023-01-29T12:00:03.038Z,37.40
2023-01-29T12:02:23.774Z,28.40
2023-01-29T12:06:35.680Z,32.03
2023-01-29T12:08:40.318Z,28.90
2023-01-29T12:10:44.177Z,30.42
2023-01-29T12:12:47.279Z,34.80
2023-01-29T12:15:04.502Z,30.55
2023-01-29T12:17:12.998Z,26.58
2023-01-29T12:19:27.718Z,30.02
2023-01-29T12:21:38.518Z,22.45
2023-01-29T12:23:48.607Z,31.75
2023-01-29T12:26:01.846Z,25.55
2023-01-29T12:28:10.860Z,32.03
2023-01-29T12:30:20.090Z,24.05
2023-01-29T12:32:33.012Z,23.17
2023-01-29T12:34:46.037Z,24.77
2023-01-29T12:36:55.839Z,24.58
2023-01-29T12:38:59.681Z,31.95
2023-01-29T12:41:08.338Z,30.85
2023-01-29T12:43:16.267Z,24.92
2023-01-29T12:45:21.398Z,21.88
2023-01-29T12:47:30.648Z,18.88
2023-01-29T12:49:36.121Z,25.75
2023-01-29T12:53:51.428Z,15.73
2023-01-29T12:55:58.317Z,20.63
2023-01-29T12:58:03.452Z,29.23
2023-01-29T13:00:12.718Z,28.08
2023-01-29T13:02:31.139Z,22.38
2023-01-29T13:04:40.721Z,23.23
2023-01-29T13:06:50.064Z,17.98
2023-01-29T13:08:58.517Z,16.20
2023-01-29T13:11:07.283Z,13.13
2023-01-29T13:13:19.678Z,17.90
2023-01-29T13:15:26.701Z,18.20
2023-01-29T13:17:36.605Z,16.17
2023-01-29T13:19:45.725Z,15.50
2023-01-29T13:21:49.160Z,15.18
2023-01-29T13:23:57.112Z,16.85
2023-01-29T13:26:00.789Z,16.55
2023-01-29T13:28:04.230Z,14.15
2023-01-29T13:30:09.153Z,18.63
2023-01-29T13:32:12.238Z,41.83
2023-01-29T13:34:19.819Z,37.58
2023-01-29T13:36:27.801Z,45.65
2023-01-29T13:38:33.839Z,36.65
2023-01-29T13:40:38.892Z,18.30
2023-01-29T13:42:46.300Z,13.27
2023-01-29T13:44:50.917Z,17.55
2023-01-29T13:46:59.850Z,12.30
2023-01-29T13:49:05.557Z,13.63
2023-01-29T13:51:18.139Z,12.38
2023-01-29T13:53:24.759Z,12.82
2023-01-29T13:55:31.837Z,12.35
2023-01-29T13:57:55.386Z,15.10
2023-01-29T13:59:59.241Z,29.48
2023-01-29T14:02:04.474Z,29.08
2023-01-29T14:04:25.895Z,27.77
2023-01-29T14:06:49.558Z,29.13
2023-01-29T14:08:52.558Z,29.73
2023-01-29T14:11:29.367Z,32.63
2023-01-29T14:13:37.120Z,26.83
2023-01-29T14:15:40.597Z,17.88
2023-01-29T14:18:03.597Z,21.67
2023-01-29T14:20:19.817Z,19.98
2023-01-29T14:22:25.114Z,33.83
2023-01-29T14:24:31.387Z,37.60
2023-01-29T14:26:45.958Z,22.33
2023-01-29T14:28:59.129Z,37.15
2023-01-29T14:31:03.262Z,31.35
2023-01-29T14:33:07.149Z,18.88
2023-01-29T14:35:19.575Z,21.67
2023-01-29T14:37:29.317Z,23.95
2023-01-29T14:39:37.476Z,22.52
2023-01-29T14:41:40.285Z,37.97
2023-01-29T14:43:43.246Z,39.85
2023-01-29T14:45:48.964Z,25.52
2023-01-29T14:48:20.874Z,40.70
2023-01-29T14:50:54.555Z,32.90
2023-01-29T14:53:02.596Z,22.27
2023-01-29T14:55:09.636Z,24.45
2023-01-29T14:57:16.411Z,20.10
2023-01-29T14:59:24.358Z,39.53
2023-01-29T15:01:33.162Z,18.25
2023-01-29T15:03:44.018Z,25.88
2023-01-29T15:05:49.438Z,36.65
2023-01-29T15:07:58.938Z,29.52
2023-01-29T15:10:22.328Z,25.27
2023-01-29T15:12:32.000Z,24.27
2023-01-29T15:14:38.423Z,25.35
2023-01-29T15:16:53.067Z,19.45
2023-01-29T15:19:04.770Z,18.55
2023-01-29T15:21:12.948Z,22.45
2023-01-29T15:23:26.227Z,23.45
2023-01-29T15:25:34.709Z,22.90
2023-01-29T15:27:42.498Z,21.92
2023-01-29T15:29:51.687Z,19.88
2023-01-29T15:31:57.268Z,22.90
2023-01-29T15:34:06.654Z,24.30
2023-01-29T15:36:19.337Z,27.17
2023-01-29T15:38:24.677Z,24.50
2023-01-29T15:40:28.229Z,24.45
2023-01-29T15:42:44.999Z,23.35
2023-01-29T15:44:48.513Z,25.38
2023-01-29T15:46:55.228Z,27.17
2023-01-29T15:49:02.800Z,25.10
2023-01-29T15:51:07.861Z,28.77
2023-01-29T15:53:16.367Z,26.35
2023-01-29T15:55:23.637Z,28.08
2023-01-29T15:57:33.244Z,26.85
2023-01-29T15:59:42.881Z,30.85
2023-01-29T16:01:46.354Z,36.40
2023-01-29T16:03:50.978Z,28.55
2023-01-29T16:05:55.951Z,29.23
2023-01-29T16:08:01.277Z,52.78
2023-01-29T16:10:05.997Z,34.97
2023-01-29T16:12:13.397Z,50.90
2023-01-29T16:14:20.911Z,51.63
2023-01-29T16:16:26.238Z,84.22
2023-01-29T16:20:45.136Z,53.45
2023-01-29T16:22:49.517Z,69.90
2023-01-29T16:24:53.525Z,69.07
2023-01-29T16:27:00.739Z,52.83
2023-01-29T16:29:08.621Z,52.63
2023-01-29T16:31:14.383Z,44.78
2023-01-29T16:33:18.050Z,36.08
2023-01-29T16:35:21.139Z,85.15
2023-01-29T16:37:27.079Z,57.35
2023-01-29T16:39:34.907Z,28.55
2023-01-29T16:41:38.783Z,42.70
2023-01-29T16:43:51.535Z,41.88
2023-01-29T16:46:04.758Z,38.85
2023-01-29T16:48:28.084Z,32.13
2023-01-29T16:50:43.285Z,35.00
2023-01-29T16:52:57.765Z,45.78
2023-01-29T16:55:21.836Z,148.93
2023-01-29T16:57:27.007Z,105.22
2023-01-29T16:59:33.596Z,65.00
2023-01-29T17:01:37.201Z,86.20
2023-01-29T17:03:41.952Z,48.72
2023-01-29T17:05:45.827Z,48.17
2023-01-29T17:07:49.019Z,60.40
2023-01-29T17:09:56.142Z,62.47
2023-01-29T17:12:03.826Z,49.28
2023-01-29T17:14:08.108Z,50.45
2023-01-29T17:16:24.425Z,44.80
2023-01-29T17:18:27.337Z,70.03
2023-01-29T17:20:31.900Z,60.90
2023-01-29T17:22:34.778Z,44.35
2023-01-29T17:24:37.554Z,42.58
2023-01-29T17:26:41.145Z,54.95
2023-01-29T17:28:46.188Z,48.60
2023-01-29T17:31:04.252Z,62.50
2023-01-29T17:33:13.954Z,39.47
2023-01-29T17:35:17.928Z,36.70
2023-01-29T17:37:21.157Z,43.47
2023-01-29T17:39:25.859Z,39.45
2023-01-29T17:41:30.786Z,35.97
2023-01-29T17:43:33.798Z,38.03
2023-01-29T17:45:39.090Z,38.45
2023-01-29T17:47:42.078Z,40.65
2023-01-29T17:49:44.997Z,42.13
2023-01-29T17:51:49.437Z,34.50
2023-01-29T17:53:52.359Z,35.42
2023-01-29T17:55:55.248Z,98.85
2023-01-29T17:57:58.318Z,96.28
2023-01-29T18:00:01.282Z,87.45
2023-01-29T18:02:05.682Z,112.78
2023-01-29T18:04:09.603Z,108.63
2023-01-29T18:06:20.273Z,63.17
2023-01-29T18:08:28.828Z,51.35
2023-01-29T18:10:31.830Z,47.15
2023-01-29T18:12:35.158Z,55.65
2023-01-29T18:14:37.988Z,70.05
2023-01-29T18:16:41.763Z,58.17
2023-01-29T18:18:46.101Z,55.85
2023-01-29T18:20:49.299Z,50.60
2023-01-29T18:22:52.698Z,61.38
2023-01-29T18:24:55.661Z,58.58
2023-01-29T18:26:58.497Z,77.53
2023-01-29T18:29:01.450Z,58.00
2023-01-29T18:31:05.754Z,50.78
2023-01-29T18:33:09.168Z,55.60
2023-01-29T18:35:13.791Z,47.22
2023-01-29T18:37:16.960Z,45.77
2023-01-29T18:39:19.891Z,48.28
2023-01-29T18:41:22.880Z,44.55
2023-01-29T18:43:26.355Z,43.92
2023-01-29T18:45:30.238Z,45.90
2023-01-29T18:47:33.167Z,39.28
2023-01-29T18:49:39.430Z,45.50
2023-01-29T18:51:43.819Z,43.58
2023-01-29T18:53:50.264Z,45.03
2023-01-29T18:55:58.059Z,53.22
2023-01-29T18:58:28.420Z,59.35
2023-01-29T19:00:25.157Z,105.15
2023-01-29T19:02:28.246Z,48.42
2023-01-29T19:04:31.122Z,50.00
2023-01-29T19:06:37.022Z,46.47
2023-01-29T19:08:43.241Z,49.75
2023-01-29T19:10:46.562Z,48.38
2023-01-29T19:12:49.552Z,58.53
2023-01-29T19:14:52.398Z,115.53
2023-01-29T19:16:56.222Z,135.93
2023-01-29T19:19:00.163Z,93.22
2023-01-29T19:21:07.801Z,59.85
2023-01-29T19:23:10.940Z,57.05
2023-01-29T19:25:16.589Z,84.90
2023-01-29T19:27:20.073Z,60.80
2023-01-29T19:29:23.123Z,60.38
2023-01-29T19:31:26.389Z,69.80
2023-01-29T19:33:29.520Z,62.53
2023-01-29T19:35:33.890Z,59.75
2023-01-29T19:37:36.770Z,61.42
2023-01-29T19:39:39.679Z,73.75
2023-01-29T19:41:44.085Z,53.70
2023-01-29T19:43:48.561Z,47.38
2023-01-29T19:45:58.151Z,41.17
2023-01-29T19:48:01.208Z,66.97
2023-01-29T19:50:04.532Z,42.45
2023-01-29T19:52:15.105Z,48.03
2023-01-29T19:54:18.640Z,66.50
2023-01-29T19:56:22.641Z,50.35
2023-01-29T19:58:28.018Z,281.08
2023-01-29T20:00:31.349Z,238.20
2023-01-29T20:02:34.262Z,114.03
2023-01-29T20:04:36.983Z,80.28
2023-01-29T20:06:39.788Z,60.42
2023-01-29T20:08:43.126Z,60.20
2023-01-29T20:10:46.416Z,54.17
2023-01-29T20:12:49.705Z,51.50
2023-01-29T20:14:53.956Z,51.10
2023-01-29T20:16:56.707Z,55.92
2023-01-29T20:19:14.758Z,50.55
2023-01-29T20:21:20.814Z,65.82
2023-01-29T20:23:37.169Z,42.55
2023-01-29T20:25:41.144Z,45.15
2023-01-29T20:27:43.903Z,146.35
2023-01-29T20:29:46.959Z,142.30
2023-01-29T20:31:51.404Z,152.32
2023-01-29T20:33:54.368Z,92.78
2023-01-29T20:35:58.590Z,63.38
2023-01-29T20:38:02.258Z,43.38
2023-01-29T20:40:05.987Z,48.53
2023-01-29T20:42:09.097Z,65.22
2023-01-29T20:44:11.979Z,72.13
2023-01-29T20:46:14.958Z,110.88
2023-01-29T20:48:19.517Z,138.93
2023-01-29T20:50:22.518Z,67.75
2023-01-29T20:52:25.582Z,73.63
2023-01-29T20:54:30.199Z,66.32
2023-01-29T20:56:37.412Z,65.30
2023-01-29T20:58:47.152Z,48.25
2023-01-29T21:00:50.050Z,47.38
2023-01-29T21:02:52.996Z,51.28
2023-01-29T21:04:57.165Z,49.78
2023-01-29T21:06:59.954Z,46.28
2023-01-29T21:09:02.808Z,42.08
2023-01-29T21:11:06.981Z,48.72
2023-01-29T21:13:09.714Z,41.22
2023-01-29T21:15:12.938Z,48.35
2023-01-29T21:17:15.834Z,63.25
2023-01-29T21:19:18.884Z,47.20
2023-01-29T21:21:23.278Z,44.17
2023-01-29T21:23:26.206Z,54.25
2023-01-29T21:25:29.203Z,42.47
2023-01-29T21:27:32.165Z,43.42
2023-01-29T21:29:36.820Z,42.53
2023-01-29T21:33:43.720Z,41.05
2023-01-29T21:35:46.596Z,46.85
2023-01-29T21:37:51.347Z,43.65
2023-01-29T21:39:54.366Z,45.37
2023-01-29T21:42:16.135Z,40.28
2023-01-29T21:44:19.108Z,45.88
2023-01-29T21:46:21.988Z,46.50
2023-01-29T21:48:25.418Z,51.28
2023-01-29T21:50:28.628Z,51.58
2023-01-29T21:52:31.716Z,48.10
2023-01-29T21:54:46.063Z,49.25
2023-01-29T21:56:49.013Z,48.70
2023-01-29T21:58:52.407Z,42.72
2023-01-29T22:00:55.318Z,49.20
2023-01-29T22:02:58.152Z,51.78
2023-01-29T22:05:18.028Z,45.88
2023-01-29T22:07:22.047Z,49.15
2023-01-29T22:09:25.057Z,46.80
2023-01-29T22:11:29.647Z,47.28
2023-01-29T22:13:32.640Z,43.33
2023-01-29T22:15:35.782Z,45.05
2023-01-29T22:17:41.617Z,42.30
2023-01-29T22:19:44.762Z,47.42
2023-01-29T22:21:47.766Z,47.05
2023-01-29T22:23:50.997Z,46.90
2023-01-29T22:25:53.968Z,47.10
2023-01-29T22:27:58.338Z,44.15
2023-01-29T22:30:01.235Z,43.55
2023-01-29T22:32:04.597Z,40.10
2023-01-29T22:34:07.726Z,47.05
2023-01-29T22:36:11.058Z,49.65
2023-01-29T22:38:14.061Z,40.78
2023-01-29T22:40:17.632Z,44.15
2023-01-29T22:42:21.081Z,41.70
2023-01-29T22:44:25.507Z,43.25
2023-01-29T22:46:28.616Z,43.08
2023-01-29T22:48:31.637Z,43.90
2023-01-29T22:50:34.577Z,44.65
2023-01-29T22:52:42.936Z,45.00
2023-01-29T22:54:45.917Z,43.58
2023-01-29T22:56:49.388Z,38.78
2023-01-29T22:58:52.933Z,42.03
2023-01-29T23:00:57.223Z,39.15
2023-01-29T23:03:00.398Z,38.15
2023-01-29T23:05:04.602Z,43.63
2023-01-29T23:07:07.640Z,34.78
2023-01-29T23:09:10.506Z,40.47
2023-01-29T23:11:17.936Z,35.78
2023-01-29T23:13:20.979Z,36.10
2023-01-29T23:15:24.037Z,34.53
2023-01-29T23:17:28.593Z,40.58
2023-01-29T23:19:31.667Z,37.67
2023-01-29T23:21:34.842Z,35.20
2023-01-29T23:23:38.398Z,36.75
2023-01-29T23:26:00.065Z,34.60
2023-01-29T23:28:02.950Z,32.78
2023-01-29T23:30:08.037Z,30.95
2023-01-29T23:32:11.780Z,35.63
2023-01-29T23:34:16.199Z,33.67
2023-01-29T23:36:19.243Z,37.20
2023-01-29T23:38:22.110Z,32.42
2023-01-29T23:40:25.103Z,39.00
2023-01-29T23:42:28.038Z,34.10
2023-01-29T23:44:31.097Z,31.55
2023-01-29T23:46:34.106Z,34.47
2023-01-29T23:48:37.155Z,30.42
2023-01-29T23:50:41.458Z,32.60
2023-01-29T23:52:44.315Z,33.30
2023-01-29T23:54:47.157Z,32.78
2023-01-29T23:56:50.208Z,31.75
2023-01-29T23:58:56.286Z,32.25
